Time;durP1;ratioP1;P1;durP2;ratioP2;P2;SDS_P1;SDS_P2;PMS_P1;PMS_P2;Temp;Humidity;BMP_temperature;BMP_pressure;BME280_temperature;BME280_humidity;BME280_pressure;Samples;Min_cycle;Max_cycle;Signal;HPM_P1;HPM_P2
2023/09/17 00:00:44;;;;;;;10.80;9.70;;;;;;;16.06;98.62;98134.42;107242;1270;24245;-84
2023/09/17 00:03:32;;;;;;;15.80;9.30;;;;;;;15.96;99.24;98138.06;107558;1273;22539;-82
2023/09/17 00:06:00;;;;;;;9.90;8.90;;;;;;;15.85;100.00;98136.10;107647;1267;25278;-83
2023/09/17 00:08:29;;;;;;;10.50;9.20;;;;;;;15.78;99.86;98135.41;107215;1276;25563;-83
2023/09/17 00:10:57;;;;;;;9.30;8.30;;;;;;;15.77;99.79;98140.34;107152;1276;22534;-83
2023/09/17 00:13:25;;;;;;;9.10;8.20;;;;;;;15.77;99.85;98141.52;107190;1276;22607;-83
2023/09/17 00:15:53;;;;;;;9.80;8.40;;;;;;;15.75;99.67;98143.31;107091;1276;22623;-83
2023/09/17 00:18:21;;;;;;;11.10;8.30;;;;;;;15.76;100.00;98136.82;107145;1267;22538;-83
2023/09/17 00:20:49;;;;;;;10.40;9.30;;;;;;;15.80;100.00;98135.38;107194;1263;25233;-84
2023/09/17 00:23:17;;;;;;;11.20;9.00;;;;;;;15.80;99.99;98136.41;107122;1276;22522;-82
2023/09/17 00:25:46;;;;;;;11.30;10.10;;;;;;;15.76;100.00;98138.07;107022;1260;22527;-84
2023/09/17 00:28:14;;;;;;;13.10;9.30;;;;;;;15.74;100.00;98140.25;107206;1276;22660;-83
2023/09/17 00:30:44;;;;;;;9.90;8.90;;;;;;;15.72;100.00;98137.67;106995;1276;163745;-83
2023/09/17 00:33:12;;;;;;;10.40;9.30;;;;;;;15.74;100.00;98136.13;107077;1276;22624;-84
2023/09/17 00:35:41;;;;;;;11.20;9.20;;;;;;;15.76;100.00;98139.15;107106;1266;25386;-85
2023/09/17 00:38:09;;;;;;;10.20;8.80;;;;;;;15.75;100.00;98141.49;107098;1273;22553;-84
2023/09/17 00:40:39;;;;;;;10.20;8.30;;;;;;;15.71;100.00;98140.96;107150;1260;25297;-85
2023/09/17 00:43:08;;;;;;;12.10;9.10;;;;;;;15.62;100.00;98138.39;107061;1276;22532;-84
2023/09/17 00:45:41;;;;;;;11.10;9.50;;;;;;;15.55;100.00;98142.44;107254;1276;24199;-84
2023/09/17 00:48:11;;;;;;;10.80;9.20;;;;;;;15.48;100.00;98141.22;107302;1263;22545;-85
2023/09/17 00:50:39;;;;;;;9.90;8.90;;;;;;;15.39;100.00;98138.94;107381;1261;22650;-83
2023/09/17 00:53:08;;;;;;;10.90;9.60;;;;;;;15.27;100.00;98137.87;107150;1266;22744;-84
2023/09/17 00:55:37;;;;;;;10.50;9.10;;;;;;;15.18;100.00;98139.98;107173;1269;22485;-84
2023/09/17 00:58:06;;;;;;;9.40;8.40;;;;;;;15.15;100.00;98139.00;107232;1261;24399;-85
2023/09/17 01:00:38;;;;;;;9.40;8.40;;;;;;;15.12;100.00;98130.48;107150;1270;24362;-86
2023/09/17 01:03:07;;;;;;;9.20;8.30;;;;;;;15.04;100.00;98126.73;107100;1270;22773;-85
2023/09/17 01:05:41;;;;;;;11.00;10.00;;;;;;;14.91;100.00;98122.41;107037;1263;22541;-85
2023/09/17 01:08:10;;;;;;;12.00;9.70;;;;;;;14.75;100.00;98119.27;107152;1276;22541;-84
2023/09/17 01:10:41;;;;;;;10.40;9.40;;;;;;;14.64;100.00;98120.48;106978;1273;24231;-84
2023/09/17 01:13:09;;;;;;;10.20;9.20;;;;;;;14.52;100.00;98116.48;107220;1270;22671;-83
2023/09/17 01:15:38;;;;;;;9.50;8.50;;;;;;;14.45;100.00;98120.17;107178;1269;22538;-83
2023/09/17 01:18:09;;;;;;;10.30;9.20;;;;;;;14.37;100.00;98117.39;107356;1270;22485;-85
2023/09/17 01:20:48;;;;;;;10.10;9.10;;;;;;;14.35;100.00;98122.04;107449;1276;26505;-85
2023/09/17 01:23:38;;;;;;;14.40;9.40;;;;;;;14.34;100.00;98123.10;107139;1276;22630;-85
2023/09/17 01:26:29;;;;;;;9.60;8.60;;;;;;;14.34;100.00;98125.34;107022;1276;25593;-84
2023/09/17 01:28:59;;;;;;;9.60;8.50;;;;;;;14.36;100.00;98122.46;106933;1263;24378;-84
2023/09/17 01:31:27;;;;;;;11.70;9.10;;;;;;;14.37;100.00;98118.70;107094;1263;22522;-85
2023/09/17 01:33:56;;;;;;;10.50;8.50;;;;;;;14.33;100.00;98117.23;107072;1254;22541;-84
2023/09/17 01:36:30;;;;;;;9.90;8.90;;;;;;;14.32;100.00;98118.18;106998;1263;25044;-84
2023/09/17 01:39:05;;;;;;;12.40;9.20;;;;;;;14.29;100.00;98118.66;106960;1260;22546;-86
2023/09/17 01:41:34;;;;;;;10.20;9.00;;;;;;;14.25;100.00;98119.64;106922;1267;23885;-84
2023/09/17 01:44:05;;;;;;;9.60;8.60;;;;;;;14.23;100.00;98120.73;107223;1269;25297;-85
2023/09/17 01:46:37;;;;;;;10.60;9.20;;;;;;;14.20;100.00;98117.46;107331;1266;22771;-83
2023/09/17 01:49:07;;;;;;;9.80;8.80;;;;;;;14.19;100.00;98116.29;107214;1263;25444;-84
2023/09/17 01:51:41;;;;;;;9.80;8.80;;;;;;;14.21;100.00;98124.41;107275;1266;24230;-86
2023/09/17 01:54:11;;;;;;;10.30;9.10;;;;;;;14.29;100.00;98128.51;107324;1272;25471;-84
2023/09/17 01:56:38;;;;;;;10.50;9.40;;;;;;;14.37;100.00;98120.04;107033;1276;25330;-84
2023/09/17 01:59:06;;;;;;;11.20;9.90;;;;;;;14.45;100.00;98123.67;107155;1267;22593;-88
2023/09/17 02:01:34;;;;;;;11.20;10.10;;;;;;;14.53;100.00;98125.97;107151;1276;22555;-84
2023/09/17 02:04:03;;;;;;;13.50;9.50;;;;;;;14.61;100.00;98126.70;107290;1272;23282;-85
2023/09/17 02:06:31;;;;;;;10.40;9.40;;;;;;;14.68;100.00;98119.44;107163;1276;22528;-84
2023/09/17 02:08:59;;;;;;;11.20;9.90;;;;;;;14.78;100.00;98116.84;107019;1276;22947;-85
2023/09/17 02:11:27;;;;;;;12.00;10.80;;;;;;;14.84;100.00;98119.67;106988;1267;25490;-84
2023/09/17 02:13:55;;;;;;;11.80;10.70;;;;;;;14.87;100.00;98115.39;107267;1256;22530;-85
2023/09/17 02:16:24;;;;;;;12.40;11.10;;;;;;;14.92;100.00;98114.30;107149;1276;22547;-85
2023/09/17 02:18:56;;;;;;;13.70;12.30;;;;;;;14.94;100.00;98115.07;107254;1276;22710;-85
2023/09/17 02:21:24;;;;;;;12.90;11.70;;;;;;;14.95;100.00;98110.23;106988;1260;22640;-84
2023/09/17 02:23:54;;;;;;;13.00;11.40;;;;;;;15.04;100.00;98112.91;107318;1266;24363;-84
2023/09/17 02:26:22;;;;;;;12.70;11.50;;;;;;;15.09;100.00;98119.72;107291;1270;22551;-85
2023/09/17 02:28:51;;;;;;;11.30;10.20;;;;;;;15.12;100.00;98120.43;107142;1276;22913;-84
2023/09/17 02:31:19;;;;;;;12.10;10.60;;;;;;;15.16;100.00;98120.67;107037;1267;22528;-85
2023/09/17 02:33:47;;;;;;;14.70;13.10;;;;;;;15.18;100.00;98121.67;107298;1261;22683;-85
2023/09/17 02:36:15;;;;;;;16.80;14.70;;;;;;;15.17;100.00;98120.25;107062;1263;25670;-85
2023/09/17 02:38:43;;;;;;;14.70;13.20;;;;;;;15.19;100.00;98113.66;107527;1263;22534;-85
2023/09/17 02:41:12;;;;;;;15.80;14.10;;;;;;;15.22;100.00;98111.45;107203;1260;25545;-85
2023/09/17 02:43:40;;;;;;;15.20;13.80;;;;;;;15.20;100.00;98106.04;107203;1263;25284;-86
2023/09/17 02:46:08;;;;;;;15.30;13.80;;;;;;;15.18;100.00;98106.08;107058;1260;22646;-84
2023/09/17 02:48:36;;;;;;;15.30;13.90;;;;;;;15.16;100.00;98103.05;107195;1276;24252;-85
2023/09/17 02:51:04;;;;;;;16.60;14.40;;;;;;;15.17;100.00;98103.36;107240;1276;25470;-83
2023/09/17 02:53:32;;;;;;;16.10;14.40;;;;;;;15.20;100.00;98109.25;107165;1276;25303;-84
2023/09/17 02:56:01;;;;;;;15.40;13.90;;;;;;;15.20;100.00;98103.83;107885;1270;23006;-85
2023/09/17 02:58:29;;;;;;;15.80;14.30;;;;;;;15.18;100.00;98100.27;109418;1276;22359;-85
2023/09/17 03:00:56;;;;;;;16.20;14.10;;;;;;;15.16;100.00;98102.66;108823;1276;22536;-85
2023/09/17 03:03:27;;;;;;;14.60;13.10;;;;;;;15.15;100.00;98103.79;108665;1276;25414;-85
2023/09/17 03:05:56;;;;;;;15.80;13.90;;;;;;;15.18;100.00;98100.33;107609;1276;23880;-86
2023/09/17 03:08:24;;;;;;;16.30;14.60;;;;;;;15.19;100.00;98107.15;106945;1276;24198;-86
2023/09/17 03:10:59;;;;;;;14.60;13.10;;;;;;;15.21;100.00;98107.60;107014;1276;25591;-86
2023/09/17 03:13:27;;;;;;;15.50;13.20;;;;;;;15.19;100.00;98109.46;107195;1276;22636;-86
2023/09/17 03:15:57;;;;;;;15.80;13.20;;;;;;;15.20;100.00;98109.08;107183;1273;22687;-84
2023/09/17 03:18:25;;;;;;;14.70;13.20;;;;;;;15.25;100.00;98111.67;107177;1263;22755;-84
2023/09/17 03:20:54;;;;;;;15.20;12.90;;;;;;;15.28;100.00;98114.12;107176;1263;22520;-82
2023/09/17 03:23:22;;;;;;;15.80;13.80;;;;;;;15.30;100.00;98112.48;107067;1260;23332;-82
2023/09/17 03:25:50;;;;;;;14.10;12.70;;;;;;;15.26;100.00;98101.92;107234;1269;25441;-82
2023/09/17 03:28:18;;;;;;;15.20;13.70;;;;;;;15.29;100.00;98107.48;106918;1261;22525;-83
2023/09/17 03:30:47;;;;;;;15.40;13.40;;;;;;;15.27;100.00;98108.26;107128;1276;22539;-83
2023/09/17 03:33:15;;;;;;;14.60;13.20;;;;;;;15.26;100.00;98105.34;107168;1269;24340;-84
2023/09/17 03:35:46;;;;;;;16.00;13.40;;;;;;;15.26;100.00;98107.42;107139;1266;22650;-83
2023/09/17 03:38:14;;;;;;;13.00;11.60;;;;;;;15.21;100.00;98107.15;107039;1263;24760;-84
2023/09/17 03:40:42;;;;;;;14.30;12.90;;;;;;;15.19;100.00;98112.48;107213;1270;22518;-83
2023/09/17 03:43:11;;;;;;;15.10;11.80;;;;;;;15.18;100.00;98111.15;106971;1276;22545;-84
2023/09/17 03:45:39;;;;;;;13.30;11.90;;;;;;;15.18;100.00;98108.56;106988;1277;23214;-84
2023/09/17 03:48:07;;;;;;;13.70;12.40;;;;;;;15.18;100.00;98109.13;107234;1261;22525;-83
2023/09/17 03:50:39;;;;;;;14.50;13.00;;;;;;;15.17;100.00;98110.16;107220;1276;24355;-83
2023/09/17 03:53:08;;;;;;;14.70;13.20;;;;;;;15.18;100.00;98108.56;107047;1267;24247;-83
2023/09/17 03:55:36;;;;;;;16.40;14.70;;;;;;;15.26;100.00;98108.51;106994;1276;22644;-83
2023/09/17 03:58:04;;;;;;;14.70;13.20;;;;;;;15.31;100.00;98103.38;107001;1275;22552;-83
2023/09/17 04:00:38;;;;;;;13.20;11.80;;;;;;;15.32;100.00;98103.70;107265;1275;22515;-84
2023/09/17 04:03:08;;;;;;;13.10;11.90;;;;;;;15.32;100.00;98106.13;107040;1267;22543;-86
2023/09/17 04:05:36;;;;;;;13.20;11.70;;;;;;;15.32;100.00;98111.48;107070;1276;25476;-84
2023/09/17 04:08:04;;;;;;;12.30;11.10;;;;;;;15.36;100.00;98113.44;107201;1276;22538;-85
2023/09/17 04:10:32;;;;;;;13.00;11.00;;;;;;;15.39;100.00;98114.16;107215;1269;22549;-84
2023/09/17 04:13:00;;;;;;;13.50;12.10;;;;;;;15.40;100.00;98115.84;107039;1277;25648;-84
2023/09/17 04:15:29;;;;;;;13.00;11.50;;;;;;;15.39;100.00;98117.06;107210;1266;22534;-85
2023/09/17 04:17:57;;;;;;;13.30;11.50;;;;;;;15.42;100.00;98117.11;106984;1265;22527;-86
2023/09/17 04:20:27;;;;;;;14.80;12.10;;;;;;;15.48;100.00;98117.10;107070;1267;22528;-86
2023/09/17 04:22:55;;;;;;;14.00;12.60;;;;;;;15.54;100.00;98119.30;106959;1276;25607;-86
2023/09/17 04:25:25;;;;;;;13.20;11.80;;;;;;;15.58;100.00;98124.28;107170;1261;22540;-85
2023/09/17 04:27:54;;;;;;;15.50;12.30;;;;;;;15.61;100.00;98123.20;107040;1262;24212;-86
2023/09/17 04:30:23;;;;;;;17.60;11.50;;;;;;;15.65;100.00;98123.32;107158;1261;22742;-86
2023/09/17 04:32:52;;;;;;;12.60;11.40;;;;;;;15.67;100.00;98122.89;107122;1276;25475;-85
2023/09/17 04:35:21;;;;;;;12.90;11.40;;;;;;;15.71;100.00;98127.12;106980;1267;22523;-85
2023/09/17 04:37:50;;;;;;;14.00;11.60;;;;;;;15.75;100.00;98128.84;107105;1276;22872;-84
2023/09/17 04:40:28;;;;;;;12.50;11.00;;;;;;;15.79;100.00;98127.54;107112;1272;24341;-84
2023/09/17 04:42:57;;;;;;;12.90;11.60;;;;;;;15.83;100.00;98124.94;107185;1269;22555;-85
2023/09/17 04:45:34;;;;;;;14.50;12.00;;;;;;;15.87;100.00;98126.95;107153;1269;22626;-87
2023/09/17 04:48:08;;;;;;;12.70;11.40;;;;;;;15.93;100.00;98131.98;107246;1270;22559;-85
2023/09/17 04:50:42;;;;;;;12.10;10.80;;;;;;;16.00;100.00;98134.21;107286;1276;22527;-86
2023/09/17 04:53:14;;;;;;;12.70;11.20;;;;;;;16.05;100.00;98139.81;106991;1263;22527;-84
2023/09/17 04:55:44;;;;;;;10.80;9.70;;;;;;;16.09;100.00;98139.36;107230;1276;22527;-87
2023/09/17 04:58:15;;;;;;;10.70;9.30;;;;;;;16.16;100.00;98139.94;107264;1269;22735;-85
2023/09/17 05:00:47;;;;;;;12.40;11.10;;;;;;;16.22;100.00;98142.10;106954;1269;23003;-85
2023/09/17 05:03:15;;;;;;;13.20;11.40;;;;;;;16.24;100.00;98144.69;107133;1276;24035;-85
2023/09/17 05:05:46;;;;;;;12.60;11.40;;;;;;;16.25;100.00;98147.59;107155;1259;22534;-85
2023/09/17 05:08:16;;;;;;;14.30;10.70;;;;;;;16.27;100.00;98147.92;106954;1277;22741;-85
2023/09/17 05:10:45;;;;;;;10.30;8.80;;;;;;;16.31;100.00;98144.80;107020;1275;22536;-85
2023/09/17 05:13:13;;;;;;;11.60;8.60;;;;;;;16.34;100.00;98143.76;107111;1263;25335;-85
2023/09/17 05:15:41;;;;;;;10.30;9.20;;;;;;;16.42;100.00;98147.39;107141;1276;24073;-85
2023/09/17 05:18:10;;;;;;;9.20;8.30;;;;;;;16.51;100.00;98151.77;107060;1266;22635;-84
2023/09/17 05:20:44;;;;;;;8.60;7.70;;;;;;;16.58;100.00;98152.48;107243;1261;22523;-83
2023/09/17 05:23:12;;;;;;;9.50;8.40;;;;;;;16.62;100.00;98159.00;107110;1277;23396;-84
2023/09/17 05:25:41;;;;;;;9.20;8.30;;;;;;;16.64;100.00;98156.74;107017;1267;25339;-83
2023/09/17 05:28:10;;;;;;;9.50;8.50;;;;;;;16.65;100.00;98156.71;107208;1276;22555;-84
2023/09/17 05:30:38;;;;;;;8.50;7.70;;;;;;;16.68;100.00;98159.93;107246;1271;25338;-82
2023/09/17 05:33:07;;;;;;;9.50;8.40;;;;;;;16.73;100.00;98158.09;107209;1269;25242;-84
2023/09/17 05:35:36;;;;;;;9.20;7.90;;;;;;;16.77;100.00;98163.58;107254;1262;22527;-85
2023/09/17 05:38:05;;;;;;;8.80;7.80;;;;;;;16.83;100.00;98163.70;107215;1266;22540;-84
2023/09/17 05:40:34;;;;;;;9.40;8.50;;;;;;;16.86;100.00;98163.66;107119;1256;22653;-85
2023/09/17 05:43:02;;;;;;;8.90;8.10;;;;;;;16.86;100.00;98163.73;107018;1276;25010;-84
2023/09/17 05:45:31;;;;;;;9.40;8.40;;;;;;;16.89;100.00;98168.52;106984;1267;25247;-84
2023/09/17 05:47:59;;;;;;;8.90;8.00;;;;;;;16.94;100.00;98172.09;107049;1275;22678;-84
2023/09/17 05:50:27;;;;;;;9.50;7.80;;;;;;;16.93;100.00;98169.75;106919;1268;22540;-84
2023/09/17 05:52:55;;;;;;;8.70;7.90;;;;;;;16.96;100.00;98178.42;107183;1260;22659;-85
2023/09/17 05:55:24;;;;;;;10.70;7.40;;;;;;;17.03;100.00;98179.05;107053;1276;24388;-85
2023/09/17 05:57:53;;;;;;;8.60;7.80;;;;;;;17.11;100.00;98176.45;107268;1261;22665;-86
2023/09/17 06:00:22;;;;;;;8.60;7.70;;;;;;;17.18;100.00;98174.08;107229;1276;22528;-85
2023/09/17 06:02:50;;;;;;;10.00;7.80;;;;;;;17.27;100.00;98175.77;107044;1266;24068;-85
2023/09/17 06:05:18;;;;;;;8.10;7.30;;;;;;;17.38;100.00;98177.64;107023;1271;25236;-84
2023/09/17 06:07:46;;;;;;;7.50;6.80;;;;;;;17.54;100.00;98181.51;107222;1267;22577;-85
2023/09/17 06:10:16;;;;;;;8.90;6.80;;;;;;;17.65;100.00;98183.23;107282;1263;22636;-83
2023/09/17 06:12:44;;;;;;;11.00;8.30;;;;;;;17.78;100.00;98184.83;107164;1276;25233;-84
2023/09/17 06:15:12;;;;;;;7.50;6.80;;;;;;;17.89;100.00;98181.48;107123;1276;22547;-85
2023/09/17 06:17:41;;;;;;;7.70;6.60;;;;;;;18.00;100.00;98178.23;107120;1272;22539;-84
2023/09/17 06:20:09;;;;;;;7.60;6.70;;;;;;;18.10;100.00;98177.55;107121;1268;23009;-85
2023/09/17 06:22:37;;;;;;;10.70;6.40;;;;;;;18.20;100.00;98177.48;107129;1276;22997;-84
2023/09/17 06:25:06;;;;;;;6.00;5.40;;;;;;;18.30;100.00;98180.35;107041;1275;22739;-85
2023/09/17 06:27:35;;;;;;;7.10;5.90;;;;;;;18.42;100.00;98179.86;107255;1272;22548;-84
2023/09/17 06:30:05;;;;;;;6.60;5.90;;;;;;;18.53;100.00;98179.26;107252;1276;22542;-84
2023/09/17 06:32:33;;;;;;;6.70;6.00;;;;;;;18.65;100.00;98177.89;106972;1277;25366;-85
2023/09/17 06:35:02;;;;;;;7.00;6.20;;;;;;;18.76;100.00;98176.42;107120;1276;24189;-85
2023/09/17 06:37:30;;;;;;;11.60;7.10;;;;;;;18.85;100.00;98180.52;107161;1276;22540;-85
2023/09/17 06:39:58;;;;;;;6.10;5.50;;;;;;;18.95;100.00;98182.92;106990;1272;24353;-85
2023/09/17 06:42:27;;;;;;;5.60;5.00;;;;;;;19.21;100.00;98181.75;107209;1272;24292;-85
2023/09/17 06:44:55;;;;;;;5.90;4.60;;;;;;;19.44;100.00;98180.52;107228;1276;22534;-85
2023/09/17 06:47:23;;;;;;;6.60;4.80;;;;;;;19.65;100.00;98182.40;107375;1272;22610;-85
2023/09/17 06:49:51;;;;;;;5.80;4.70;;;;;;;19.84;100.00;98188.14;108026;1277;22894;-86
2023/09/17 06:52:19;;;;;;;8.40;5.10;;;;;;;20.08;100.00;98187.54;109749;1273;22552;-84
2023/09/17 06:54:50;;;;;;;5.70;4.80;;;;;;;20.32;100.00;98188.26;108696;1276;24218;-86
2023/09/17 06:57:22;;;;;;;5.50;4.50;;;;;;;20.46;100.00;98185.06;107211;1276;25217;-85
2023/09/17 06:59:49;;;;;;;5.90;4.60;;;;;;;20.65;100.00;98187.98;107139;1276;24360;-86
2023/09/17 07:02:17;;;;;;;5.90;4.70;;;;;;;20.76;100.00;98189.48;107154;1267;24394;-84
2023/09/17 07:04:45;;;;;;;6.80;5.10;;;;;;;20.84;100.00;98190.60;107158;1265;24215;-84
2023/09/17 07:07:13;;;;;;;5.60;4.90;;;;;;;20.94;100.00;98191.73;107033;1270;22644;-82
2023/09/17 07:09:43;;;;;;;6.60;5.40;;;;;;;21.12;100.00;98192.50;107178;1262;22651;-84
2023/09/17 07:12:11;;;;;;;7.10;5.10;;;;;;;21.27;100.00;98191.70;107441;1272;22621;-83
2023/09/17 07:14:39;;;;;;;5.50;4.90;;;;;;;21.31;99.33;98195.62;107612;1269;22622;-87
2023/09/17 07:17:07;;;;;;;5.40;4.70;;;;;;;21.39;99.13;98197.17;107291;1262;22720;-85
2023/09/17 07:19:35;;;;;;;8.70;5.40;;;;;;;21.51;98.87;98198.91;107152;1269;23931;-86
2023/09/17 07:22:04;;;;;;;7.40;5.40;;;;;;;21.63;96.83;98203.04;107102;1266;22531;-85
2023/09/17 07:24:32;;;;;;;6.10;5.00;;;;;;;21.72;97.68;98206.02;107186;1272;23136;-86
2023/09/17 07:27:00;;;;;;;6.70;4.80;;;;;;;21.87;97.66;98207.84;107160;1263;23234;-86
2023/09/17 07:29:31;;;;;;;6.40;5.20;;;;;;;21.99;96.59;98212.98;107223;1265;22547;-85
2023/09/17 07:31:59;;;;;;;5.50;4.90;;;;;;;22.09;96.35;98208.91;107183;1265;24036;-85
2023/09/17 07:34:27;;;;;;;7.60;4.60;;;;;;;22.23;95.77;98212.62;107262;1269;22541;-85
2023/09/17 07:36:55;;;;;;;5.40;3.90;;;;;;;22.35;94.91;98212.10;107183;1260;24050;-86
2023/09/17 07:39:23;;;;;;;6.60;4.70;;;;;;;22.35;94.07;98212.80;107359;1276;22564;-82
2023/09/17 07:41:51;;;;;;;5.30;3.90;;;;;;;22.29;92.88;98213.02;107146;1268;22555;-83
2023/09/17 07:44:19;;;;;;;7.00;4.40;;;;;;;22.24;93.12;98214.44;107185;1262;24203;-83
2023/09/17 07:46:47;;;;;;;4.90;4.00;;;;;;;22.19;92.94;98216.95;107175;1265;22528;-84
2023/09/17 07:49:15;;;;;;;4.90;3.90;;;;;;;22.18;92.62;98218.59;107157;1272;25485;-85
2023/09/17 07:51:43;;;;;;;5.20;4.30;;;;;;;22.20;92.47;98221.05;107100;1272;22596;-82
2023/09/17 07:54:11;;;;;;;5.10;4.40;;;;;;;22.26;92.08;98221.77;106981;1276;22527;-83
2023/09/17 07:56:39;;;;;;;5.10;4.60;;;;;;;22.23;91.01;98221.48;106922;1276;23912;-84
2023/09/17 07:59:08;;;;;;;6.20;4.60;;;;;;;22.16;90.90;98224.64;107214;1269;22524;-83
2023/09/17 08:01:36;;;;;;;4.80;4.30;;;;;;;22.11;90.47;98229.41;107165;1269;24092;-83
2023/09/17 08:04:05;;;;;;;4.80;4.30;;;;;;;22.12;90.64;98233.98;107056;1266;22790;-83
2023/09/17 08:06:34;;;;;;;6.40;4.00;;;;;;;22.16;89.02;98230.70;107194;1276;22679;-83
2023/09/17 08:09:06;;;;;;;6.30;4.20;;;;;;;22.26;89.39;98228.73;107286;1276;22683;-84
2023/09/17 08:11:34;;;;;;;5.00;3.90;;;;;;;22.40;88.16;98228.58;107238;1265;24206;-85
2023/09/17 08:14:02;;;;;;;5.00;4.40;;;;;;;22.49;88.59;98225.88;107059;1267;24284;-84
2023/09/17 08:16:31;;;;;;;7.10;3.90;;;;;;;22.56;88.10;98226.44;107238;1272;22640;-84
2023/09/17 08:18:59;;;;;;;5.50;4.20;;;;;;;22.54;87.09;98227.67;107262;1269;22618;-83
2023/09/17 08:21:28;;;;;;;4.90;3.80;;;;;;;22.55;87.08;98227.30;107303;1268;22522;-85
2023/09/17 08:24:00;;;;;;;5.30;3.80;;;;;;;22.61;86.72;98223.77;107285;1269;26722;-85
2023/09/17 08:26:28;;;;;;;4.40;3.50;;;;;;;22.66;86.51;98225.73;107254;1272;23588;-82
2023/09/17 08:28:56;;;;;;;5.40;3.60;;;;;;;22.75;86.13;98225.15;107232;1276;22538;-84
2023/09/17 08:31:25;;;;;;;5.50;3.00;;;;;;;22.81;84.77;98225.23;107245;1276;26012;-84
2023/09/17 08:33:54;;;;;;;6.20;3.50;;;;;;;22.93;84.90;98224.23;106988;1276;22655;-85
2023/09/17 08:36:22;;;;;;;5.40;3.60;;;;;;;23.02;83.55;98229.06;107184;1269;22568;-83
2023/09/17 08:38:52;;;;;;;8.70;3.20;;;;;;;23.02;83.21;98226.08;107135;1276;22527;-83
2023/09/17 08:41:22;;;;;;;3.40;3.00;;;;;;;22.99;83.02;98224.40;107172;1272;22537;-82
2023/09/17 08:43:54;;;;;;;3.00;2.60;;;;;;;22.91;82.40;98220.89;107268;1276;23873;-85
2023/09/17 08:46:23;;;;;;;3.90;2.80;;;;;;;22.94;82.97;98221.56;106990;1270;24311;-82
2023/09/17 08:48:55;;;;;;;3.80;3.10;;;;;;;22.98;82.03;98220.77;107258;1272;22640;-83
2023/09/17 08:51:25;;;;;;;3.50;2.80;;;;;;;22.96;81.95;98222.23;107267;1262;22660;-82
2023/09/17 08:54:05;;;;;;;2.80;2.50;;;;;;;22.89;81.10;98223.92;107194;1276;26504;-83
2023/09/17 08:56:37;;;;;;;4.00;2.90;;;;;;;22.95;81.20;98224.48;106988;1263;22538;-83
2023/09/17 08:59:22;;;;;;;4.30;3.20;;;;;;;23.07;80.81;98218.38;107151;1276;23379;-82
2023/09/17 09:01:53;;;;;;;3.60;2.90;;;;;;;23.17;79.46;98221.47;107250;1276;22523;-83
2023/09/17 09:04:23;;;;;;;5.30;3.40;;;;;;;23.17;78.77;98215.04;107192;1268;22577;-84
2023/09/17 09:06:51;;;;;;;4.10;3.00;;;;;;;23.15;79.46;98212.57;107420;1272;25393;-81
2023/09/17 09:09:20;;;;;;;4.60;2.80;;;;;;;23.14;78.84;98214.30;107428;1276;24032;-81
2023/09/17 09:11:48;;;;;;;6.70;3.00;;;;;;;23.23;78.85;98213.77;106845;1276;22528;-81
2023/09/17 09:14:16;;;;;;;5.70;3.20;;;;;;;23.39;78.40;98218.60;107097;1272;22529;-79
2023/09/17 09:16:45;;;;;;;3.40;2.90;;;;;;;23.48;77.44;98214.92;106939;1277;23884;-79
2023/09/17 09:19:13;;;;;;;4.30;3.00;;;;;;;23.56;77.03;98216.11;107133;1276;25420;-80
2023/09/17 09:21:42;;;;;;;4.00;2.70;;;;;;;23.66;77.32;98215.11;106760;1275;22826;-82
2023/09/17 09:24:10;;;;;;;3.60;2.80;;;;;;;23.76;77.15;98215.48;106955;1276;22794;-81
2023/09/17 09:26:38;;;;;;;3.40;2.70;;;;;;;23.88;76.07;98213.06;106818;1276;25314;-80
2023/09/17 09:29:08;;;;;;;4.00;2.70;;;;;;;24.06;76.41;98217.15;106941;1275;24272;-80
2023/09/17 09:31:37;;;;;;;5.10;2.70;;;;;;;24.22;75.87;98215.95;106891;1276;23879;-79
2023/09/17 09:34:05;;;;;;;4.90;2.80;;;;;;;24.30;73.47;98213.02;107083;1265;25339;-77
2023/09/17 09:36:34;;;;;;;4.50;2.60;;;;;;;24.40;74.03;98212.00;106816;1270;22518;-77
2023/09/17 09:39:02;;;;;;;3.00;2.70;;;;;;;24.54;73.48;98206.98;106889;1265;24343;-81
2023/09/17 09:41:32;;;;;;;3.50;2.70;;;;;;;24.64;73.62;98206.34;107548;1269;22751;-81
2023/09/17 09:44:03;;;;;;;3.50;2.60;;;;;;;24.78;72.41;98203.98;107602;1263;25923;-82
2023/09/17 09:46:32;;;;;;;4.40;2.70;;;;;;;24.89;72.62;98202.54;107496;1260;24045;-81
2023/09/17 09:49:02;;;;;;;4.10;2.60;;;;;;;25.02;72.64;98202.68;107600;1276;25594;-82
2023/09/17 09:51:31;;;;;;;3.50;2.60;;;;;;;25.12;72.51;98202.02;107103;1276;22533;-81
2023/09/17 09:54:00;;;;;;;3.40;2.50;;;;;;;25.18;71.16;98198.36;107154;1272;24470;-80
2023/09/17 09:56:28;;;;;;;3.00;2.70;;;;;;;25.27;70.41;98199.88;107144;1276;22569;-79
2023/09/17 09:58:57;;;;;;;2.90;2.60;;;;;;;25.40;70.10;98200.94;106857;1272;22643;-79
2023/09/17 10:01:26;;;;;;;7.00;2.70;;;;;;;25.45;69.99;98199.86;107044;1272;22775;-80
2023/09/17 10:03:58;;;;;;;3.50;2.60;;;;;;;25.52;68.07;98205.63;107152;1260;22524;-79
2023/09/17 10:06:26;;;;;;;5.30;2.50;;;;;;;25.53;66.79;98200.12;107102;1268;22609;-78
2023/09/17 10:08:54;;;;;;;2.60;2.00;;;;;;;25.51;66.82;98199.80;107233;1265;22529;-79
2023/09/17 10:11:22;;;;;;;2.90;2.50;;;;;;;25.54;66.61;98199.55;106933;1271;22636;-79
2023/09/17 10:13:53;;;;;;;3.70;2.60;;;;;;;25.63;66.78;98197.13;106863;1276;22651;-79
2023/09/17 10:16:22;;;;;;;3.90;2.30;;;;;;;25.79;65.61;98194.65;106678;1261;22535;-80
2023/09/17 10:18:53;;;;;;;5.00;2.10;;;;;;;25.91;64.78;98195.63;106872;1263;22647;-79
2023/09/17 10:21:25;;;;;;;2.40;2.10;;;;;;;25.96;63.20;98197.59;106823;1269;22543;-80
2023/09/17 10:23:55;;;;;;;3.60;2.80;;;;;;;25.86;64.24;98193.73;106752;1270;22558;-81
2023/09/17 10:26:24;;;;;;;3.70;2.10;;;;;;;25.97;63.11;98193.10;107036;1272;22537;-80
2023/09/17 10:28:54;;;;;;;3.50;2.30;;;;;;;26.08;62.45;98194.92;107071;1263;22572;-78
2023/09/17 10:31:23;;;;;;;3.90;2.60;;;;;;;26.20;61.20;98196.26;107180;1269;23255;-79
2023/09/17 10:33:52;;;;;;;2.80;2.10;;;;;;;26.21;59.63;98193.57;107473;1276;22696;-84
2023/09/17 10:36:23;;;;;;;3.00;2.10;;;;;;;26.15;57.66;98191.59;107799;1276;22559;-81
2023/09/17 10:38:54;;;;;;;3.40;2.40;;;;;;;25.97;58.18;98186.71;107645;1269;23973;-81
2023/09/17 10:41:25;;;;;;;3.10;2.00;;;;;;;25.94;58.61;98191.77;107622;1275;22592;-82
2023/09/17 10:43:54;;;;;;;3.90;2.20;;;;;;;25.96;58.96;98191.05;107149;1272;22691;-82
2023/09/17 10:46:23;;;;;;;3.30;1.90;;;;;;;26.05;58.09;98193.41;107113;1276;23107;-82
2023/09/17 10:48:53;;;;;;;3.00;2.10;;;;;;;26.02;56.44;98190.74;106946;1275;22629;-82
2023/09/17 10:51:22;;;;;;;4.00;2.30;;;;;;;25.68;56.09;98192.73;107234;1269;24235;-85
2023/09/17 10:53:50;;;;;;;2.80;2.30;;;;;;;25.42;56.17;98194.73;107171;1254;22579;-84
2023/09/17 10:56:20;;;;;;;3.50;2.20;;;;;;;25.42;55.35;98191.73;107207;1276;25494;-84
2023/09/17 10:58:52;;;;;;;3.40;2.10;;;;;;;25.51;55.65;98186.00;107060;1257;22549;-84
2023/09/17 11:01:26;;;;;;;4.30;2.20;;;;;;;25.69;56.17;98186.59;107164;1276;23007;-83
2023/09/17 11:04:00;;;;;;;5.30;2.30;;;;;;;26.00;56.65;98184.73;107042;1272;22517;-83
2023/09/17 11:06:31;;;;;;;2.90;2.10;;;;;;;26.24;55.52;98187.17;107329;1269;24386;-85
2023/09/17 11:08:59;;;;;;;3.20;2.30;;;;;;;26.31;55.63;98189.69;107057;1268;24187;-87
2023/09/17 11:11:30;;;;;;;4.20;2.70;;;;;;;26.49;55.55;98186.21;106924;1272;23904;-85
2023/09/17 11:13:58;;;;;;;2.60;2.00;;;;;;;26.46;55.71;98183.84;106974;1276;25288;-88
2023/09/17 11:16:29;;;;;;;4.20;2.30;;;;;;;26.35;55.02;98184.23;107126;1270;24200;-88
2023/09/17 11:19:13;;;;;;;2.60;2.20;;;;;;;26.18;54.99;98188.91;107160;1253;25386;-84
2023/09/17 11:21:49;;;;;;;4.40;2.50;;;;;;;25.99;55.19;98183.16;107189;1276;22523;-84
2023/09/17 11:24:19;;;;;;;3.70;2.20;;;;;;;25.99;54.57;98185.45;107146;1276;22766;-84